sensor_id;sensor_type;location;lat;lon;timestamp;P1;durP1;ratioP1;P2;durP2;ratioP2
17449;SDS011;8842;51.244;7.102;2023-04-01T00:04:34;13.20;;;12.50;;
17449;SDS011;8842;51.244;7.102;2023-04-01T00:09:48;13.00;;;12.30;;
17449;SDS011;8842;51.244;7.102;2023-04-01T00:14:52;13.00;;;12.30;;
17449;SDS011;8842;51.244;7.102;2023-04-01T00:19:57;12.97;;;12.27;;
17449;SDS011;8842;51.244;7.102;2023-04-01T00:25:11;13.20;;;12.50;;
17449;SDS011;8842;51.244;7.102;2023-04-01T00:35:29;12.90;;;12.20;;
17449;SDS011;8842;51.244;7.102;2023-04-01T00:40:35;12.80;;;12.10;;
17449;SDS011;8842;51.244;7.102;2023-04-01T00:45:51;12.70;;;12.00;;
17449;SDS011;8842;51.244;7.102;2023-04-01T00:50:56;12.97;;;12.27;;
17449;SDS011;8842;51.244;7.102;2023-04-01T00:56:13;12.77;;;12.07;;
17449;SDS011;8842;51.244;7.102;2023-04-01T01:01:20;13.30;;;12.60;;
17449;SDS011;8842;51.244;7.102;2023-04-01T01:06:30;12.40;;;11.80;;
17449;SDS011;8842;51.244;7.102;2023-04-01T01:11:50;12.87;;;12.17;;
17449;SDS011;8842;51.244;7.102;2023-04-01T01:16:58;13.40;;;12.70;;
17449;SDS011;8842;51.244;7.102;2023-04-01T01:22:21;13.00;;;12.30;;
17449;SDS011;8842;51.244;7.102;2023-04-01T01:27:36;12.50;;;11.90;;
17449;SDS011;8842;51.244;7.102;2023-04-01T01:33:09;13.00;;;12.30;;
17449;SDS011;8842;51.244;7.102;2023-04-01T01:38:23;12.67;;;12.00;;
17449;SDS011;8842;51.244;7.102;2023-04-01T01:43:30;13.23;;;12.53;;
17449;SDS011;8842;51.244;7.102;2023-04-01T01:48:46;13.00;;;12.30;;
17449;SDS011;8842;51.244;7.102;2023-04-01T01:53:53;13.43;;;12.73;;
17449;SDS011;8842;51.244;7.102;2023-04-01T01:59:08;13.40;;;12.70;;
17449;SDS011;8842;51.244;7.102;2023-04-01T02:09:27;13.03;;;12.33;;
17449;SDS011;8842;51.244;7.102;2023-04-01T02:14:34;13.03;;;12.33;;
17449;SDS011;8842;51.244;7.102;2023-04-01T02:19:49;13.10;;;12.40;;
17449;SDS011;8842;51.244;7.102;2023-04-01T02:24:57;13.70;;;13.00;;
17449;SDS011;8842;51.244;7.102;2023-04-01T02:30:12;13.80;;;13.10;;
17449;SDS011;8842;51.244;7.102;2023-04-01T02:35:19;13.50;;;12.80;;
17449;SDS011;8842;51.244;7.102;2023-04-01T02:40:24;13.37;;;12.67;;
17449;SDS011;8842;51.244;7.102;2023-04-01T02:45:28;13.70;;;13.00;;
17449;SDS011;8842;51.244;7.102;2023-04-01T02:50:42;13.60;;;12.90;;
17449;SDS011;8842;51.244;7.102;2023-04-01T02:55:47;13.33;;;12.63;;
17449;SDS011;8842;51.244;7.102;2023-04-01T03:01:00;13.80;;;13.10;;
17449;SDS011;8842;51.244;7.102;2023-04-01T03:11:19;13.23;;;12.53;;
17449;SDS011;8842;51.244;7.102;2023-04-01T03:16:23;13.20;;;12.50;;
17449;SDS011;8842;51.244;7.102;2023-04-01T03:21:37;13.37;;;12.67;;
17449;SDS011;8842;51.244;7.102;2023-04-01T03:26:41;13.00;;;12.30;;
17449;SDS011;8842;51.244;7.102;2023-04-01T03:31:55;13.40;;;12.70;;
17449;SDS011;8842;51.244;7.102;2023-04-01T03:37:00;13.23;;;12.53;;
17449;SDS011;8842;51.244;7.102;2023-04-01T03:42:04;13.40;;;12.70;;
17449;SDS011;8842;51.244;7.102;2023-04-01T03:47:09;13.60;;;12.90;;
17449;SDS011;8842;51.244;7.102;2023-04-01T03:52:14;13.23;;;12.53;;
17449;SDS011;8842;51.244;7.102;2023-04-01T03:57:25;13.73;;;13.03;;
17449;SDS011;8842;51.244;7.102;2023-04-01T04:02:29;13.30;;;12.60;;
17449;SDS011;8842;51.244;7.102;2023-04-01T04:07:41;13.23;;;12.53;;
17449;SDS011;8842;51.244;7.102;2023-04-01T04:12:45;13.93;;;13.23;;
17449;SDS011;8842;51.244;7.102;2023-04-01T04:18:00;14.07;;;13.37;;
17449;SDS011;8842;51.244;7.102;2023-04-01T04:23:04;14.20;;;13.50;;
17449;SDS011;8842;51.244;7.102;2023-04-01T04:33:19;13.83;;;13.13;;
17449;SDS011;8842;51.244;7.102;2023-04-01T04:38:23;14.10;;;13.40;;
17449;SDS011;8842;51.244;7.102;2023-04-01T04:43:35;14.10;;;13.40;;
17449;SDS011;8842;51.244;7.102;2023-04-01T04:48:39;14.50;;;13.70;;
17449;SDS011;8842;51.244;7.102;2023-04-01T04:53:53;14.67;;;13.87;;
17449;SDS011;8842;51.244;7.102;2023-04-01T05:04:14;14.40;;;13.60;;
17449;SDS011;8842;51.244;7.102;2023-04-01T05:09:18;14.53;;;13.73;;
17449;SDS011;8842;51.244;7.102;2023-04-01T05:19:50;14.17;;;13.47;;
17449;SDS011;8842;51.244;7.102;2023-04-01T05:24:54;14.60;;;13.80;;
17449;SDS011;8842;51.244;7.102;2023-04-01T05:29:58;14.50;;;13.70;;
17449;SDS011;8842;51.244;7.102;2023-04-01T05:35:02;14.70;;;13.90;;
17449;SDS011;8842;51.244;7.102;2023-04-01T05:40:09;14.27;;;13.50;;
17449;SDS011;8842;51.244;7.102;2023-04-01T05:45:13;14.37;;;13.57;;
17449;SDS011;8842;51.244;7.102;2023-04-01T05:50:18;14.60;;;13.80;;
17449;SDS011;8842;51.244;7.102;2023-04-01T05:55:34;14.10;;;13.40;;
17449;SDS011;8842;51.244;7.102;2023-04-01T06:00:38;14.57;;;13.77;;
17449;SDS011;8842;51.244;7.102;2023-04-01T06:05:53;14.20;;;13.40;;
17449;SDS011;8842;51.244;7.102;2023-04-01T06:16:18;13.90;;;13.20;;
17449;SDS011;8842;51.244;7.102;2023-04-01T06:27:15;13.57;;;12.87;;
17449;SDS011;8842;51.244;7.102;2023-04-01T06:32:31;13.83;;;13.13;;
17449;SDS011;8842;51.244;7.102;2023-04-01T06:37:52;14.13;;;13.43;;
17449;SDS011;8842;51.244;7.102;2023-04-01T06:48:24;14.00;;;13.30;;
17449;SDS011;8842;51.244;7.102;2023-04-01T06:53:37;13.90;;;13.20;;
17449;SDS011;8842;51.244;7.102;2023-04-01T06:58:52;13.90;;;13.20;;
17449;SDS011;8842;51.244;7.102;2023-04-01T07:04:00;14.40;;;13.60;;
17449;SDS011;8842;51.244;7.102;2023-04-01T07:09:16;14.40;;;13.60;;
17449;SDS011;8842;51.244;7.102;2023-04-01T07:14:25;14.20;;;13.50;;
17449;SDS011;8842;51.244;7.102;2023-04-01T07:19:41;14.33;;;13.53;;
17449;SDS011;8842;51.244;7.102;2023-04-01T07:24:47;12.70;;;12.00;;
17449;SDS011;8842;51.244;7.102;2023-04-01T07:30:03;13.57;;;12.87;;
17449;SDS011;8842;51.244;7.102;2023-04-01T07:35:15;13.40;;;12.70;;
17449;SDS011;8842;51.244;7.102;2023-04-01T07:40:32;13.70;;;13.00;;
17449;SDS011;8842;51.244;7.102;2023-04-01T07:45:42;13.90;;;13.20;;
17449;SDS011;8842;51.244;7.102;2023-04-01T07:50:58;14.37;;;13.57;;
17449;SDS011;8842;51.244;7.102;2023-04-01T07:56:11;14.47;;;13.67;;
17449;SDS011;8842;51.244;7.102;2023-04-01T08:01:20;12.83;;;12.13;;
17449;SDS011;8842;51.244;7.102;2023-04-01T08:06:36;13.53;;;12.83;;
17449;SDS011;8842;51.244;7.102;2023-04-01T08:11:46;13.10;;;12.40;;
17449;SDS011;8842;51.244;7.102;2023-04-01T08:17:05;13.20;;;12.50;;
17449;SDS011;8842;51.244;7.102;2023-04-01T08:22:14;13.70;;;13.00;;
17449;SDS011;8842;51.244;7.102;2023-04-01T08:27:27;13.80;;;13.10;;
17449;SDS011;8842;51.244;7.102;2023-04-01T08:32:35;13.50;;;12.80;;
17449;SDS011;8842;51.244;7.102;2023-04-01T08:37:41;13.70;;;13.00;;
17449;SDS011;8842;51.244;7.102;2023-04-01T08:43:01;13.77;;;13.07;;
17449;SDS011;8842;51.244;7.102;2023-04-01T08:48:18;13.67;;;12.97;;
17449;SDS011;8842;51.244;7.102;2023-04-01T08:53:53;13.50;;;12.80;;
17449;SDS011;8842;51.244;7.102;2023-04-01T08:59:13;13.30;;;12.60;;
17449;SDS011;8842;51.244;7.102;2023-04-01T09:04:43;13.70;;;13.00;;
17449;SDS011;8842;51.244;7.102;2023-04-01T09:10:15;13.50;;;12.80;;
17449;SDS011;8842;51.244;7.102;2023-04-01T09:21:23;13.47;;;12.77;;
17449;SDS011;8842;51.244;7.102;2023-04-01T09:26:39;13.47;;;12.77;;
17449;SDS011;8842;51.244;7.102;2023-04-01T09:32:00;13.73;;;13.03;;
17449;SDS011;8842;51.244;7.102;2023-04-01T09:37:20;13.77;;;13.07;;
17449;SDS011;8842;51.244;7.102;2023-04-01T09:42:42;14.00;;;13.20;;
17449;SDS011;8842;51.244;7.102;2023-04-01T09:47:51;13.57;;;12.87;;
17449;SDS011;8842;51.244;7.102;2023-04-01T09:53:17;12.80;;;12.10;;
17449;SDS011;8842;51.244;7.102;2023-04-01T10:04:29;13.20;;;12.50;;
17449;SDS011;8842;51.244;7.102;2023-04-01T10:10:19;11.27;;;10.67;;
17449;SDS011;8842;51.244;7.102;2023-04-01T10:15:41;11.53;;;10.93;;
17449;SDS011;8842;51.244;7.102;2023-04-01T10:20:59;11.47;;;10.87;;
17449;SDS011;8842;51.244;7.102;2023-04-01T10:26:28;11.90;;;11.30;;
17449;SDS011;8842;51.244;7.102;2023-04-01T10:32:11;12.30;;;11.70;;
17449;SDS011;8842;51.244;7.102;2023-04-01T10:37:29;11.60;;;11.00;;
17449;SDS011;8842;51.244;7.102;2023-04-01T10:48:43;12.10;;;11.50;;
17449;SDS011;8842;51.244;7.102;2023-04-01T10:54:26;11.57;;;10.97;;
17449;SDS011;8842;51.244;7.102;2023-04-01T11:05:28;10.63;;;10.13;;
17449;SDS011;8842;51.244;7.102;2023-04-01T11:17:01;12.20;;;11.60;;
17449;SDS011;8842;51.244;7.102;2023-04-01T11:22:32;12.63;;;12.03;;
17449;SDS011;8842;51.244;7.102;2023-04-01T11:33:39;13.73;;;13.03;;
17449;SDS011;8842;51.244;7.102;2023-04-01T11:39:00;12.87;;;12.17;;
17449;SDS011;8842;51.244;7.102;2023-04-01T11:44:14;13.40;;;12.70;;
17449;SDS011;8842;51.244;7.102;2023-04-01T11:49:27;13.80;;;13.10;;
17449;SDS011;8842;51.244;7.102;2023-04-01T11:54:52;13.30;;;12.60;;
17449;SDS011;8842;51.244;7.102;2023-04-01T12:05:38;13.57;;;12.77;;
17449;SDS011;8842;51.244;7.102;2023-04-01T12:10:55;12.97;;;12.27;;
17449;SDS011;8842;51.244;7.102;2023-04-01T12:16:07;12.93;;;12.23;;
17449;SDS011;8842;51.244;7.102;2023-04-01T12:32:02;13.80;;;13.07;;
17449;SDS011;8842;51.244;7.102;2023-04-01T12:37:18;14.40;;;13.63;;
17449;SDS011;8842;51.244;7.102;2023-04-01T12:42:36;14.30;;;13.60;;
17449;SDS011;8842;51.244;7.102;2023-04-01T12:48:05;14.17;;;13.47;;
17449;SDS011;8842;51.244;7.102;2023-04-01T12:53:22;13.80;;;13.10;;
17449;SDS011;8842;51.244;7.102;2023-04-01T12:58:53;14.00;;;13.30;;
17449;SDS011;8842;51.244;7.102;2023-04-01T13:09:54;14.03;;;13.33;;
17449;SDS011;8842;51.244;7.102;2023-04-01T13:15:22;13.77;;;13.07;;
17449;SDS011;8842;51.244;7.102;2023-04-01T13:20:44;13.80;;;13.10;;
17449;SDS011;8842;51.244;7.102;2023-04-01T13:25:53;13.17;;;12.47;;
17449;SDS011;8842;51.244;7.102;2023-04-01T13:31:01;13.13;;;12.43;;
17449;SDS011;8842;51.244;7.102;2023-04-01T13:36:13;13.30;;;12.60;;
17449;SDS011;8842;51.244;7.102;2023-04-01T13:41:35;13.50;;;12.80;;
17449;SDS011;8842;51.244;7.102;2023-04-01T13:52:40;13.10;;;12.40;;
17449;SDS011;8842;51.244;7.102;2023-04-01T13:58:10;13.67;;;12.97;;
17449;SDS011;8842;51.244;7.102;2023-04-01T14:03:27;13.50;;;12.80;;
17449;SDS011;8842;51.244;7.102;2023-04-01T14:09:19;13.70;;;13.00;;
17449;SDS011;8842;51.244;7.102;2023-04-01T14:14:40;13.27;;;12.57;;
17449;SDS011;8842;51.244;7.102;2023-04-01T14:19:56;13.33;;;12.63;;
17449;SDS011;8842;51.244;7.102;2023-04-01T14:25:27;12.60;;;11.90;;
17449;SDS011;8842;51.244;7.102;2023-04-01T14:30:40;13.60;;;12.80;;
17449;SDS011;8842;51.244;7.102;2023-04-01T14:35:50;13.07;;;12.37;;
17449;SDS011;8842;51.244;7.102;2023-04-01T14:41:01;13.50;;;12.80;;
17449;SDS011;8842;51.244;7.102;2023-04-01T14:52:21;13.60;;;12.90;;
17449;SDS011;8842;51.244;7.102;2023-04-01T14:57:28;13.30;;;12.60;;
17449;SDS011;8842;51.244;7.102;2023-04-01T15:02:50;14.00;;;13.30;;
17449;SDS011;8842;51.244;7.102;2023-04-01T15:08:04;13.73;;;13.03;;
17449;SDS011;8842;51.244;7.102;2023-04-01T15:13:13;13.67;;;12.97;;
17449;SDS011;8842;51.244;7.102;2023-04-01T15:18:32;12.60;;;11.90;;
17449;SDS011;8842;51.244;7.102;2023-04-01T15:23:46;11.60;;;11.00;;
17449;SDS011;8842;51.244;7.102;2023-04-01T15:28:59;12.17;;;11.53;;
17449;SDS011;8842;51.244;7.102;2023-04-01T15:34:17;11.90;;;11.30;;
17449;SDS011;8842;51.244;7.102;2023-04-01T15:39:29;11.90;;;11.30;;
17449;SDS011;8842;51.244;7.102;2023-04-01T15:44:46;12.20;;;11.60;;
17449;SDS011;8842;51.244;7.102;2023-04-01T15:49:55;11.70;;;11.10;;
17449;SDS011;8842;51.244;7.102;2023-04-01T15:55:07;12.37;;;11.67;;
17449;SDS011;8842;51.244;7.102;2023-04-01T16:00:21;12.20;;;11.60;;
17449;SDS011;8842;51.244;7.102;2023-04-01T16:05:35;12.40;;;11.70;;
17449;SDS011;8842;51.244;7.102;2023-04-01T16:10:56;12.20;;;11.60;;
17449;SDS011;8842;51.244;7.102;2023-04-01T16:16:07;12.80;;;12.10;;
17449;SDS011;8842;51.244;7.102;2023-04-01T16:21:21;11.90;;;11.30;;
17449;SDS011;8842;51.244;7.102;2023-04-01T16:26:36;11.87;;;11.27;;
17449;SDS011;8842;51.244;7.102;2023-04-01T16:31:43;12.33;;;11.70;;
17449;SDS011;8842;51.244;7.102;2023-04-01T16:37:03;12.30;;;11.70;;
17449;SDS011;8842;51.244;7.102;2023-04-01T16:42:15;12.80;;;12.10;;
17449;SDS011;8842;51.244;7.102;2023-04-01T16:47:28;12.43;;;11.73;;
17449;SDS011;8842;51.244;7.102;2023-04-01T16:52:48;13.00;;;12.30;;
17449;SDS011;8842;51.244;7.102;2023-04-01T16:58:06;14.00;;;13.30;;
17449;SDS011;8842;51.244;7.102;2023-04-01T17:03:13;14.10;;;13.40;;
17449;SDS011;8842;51.244;7.102;2023-04-01T17:08:24;14.33;;;13.53;;
17449;SDS011;8842;51.244;7.102;2023-04-01T17:13:40;13.57;;;12.87;;
17449;SDS011;8842;51.244;7.102;2023-04-01T17:18:49;13.70;;;13.00;;
17449;SDS011;8842;51.244;7.102;2023-04-01T17:24:00;14.30;;;13.50;;
17449;SDS011;8842;51.244;7.102;2023-04-01T17:29:10;14.33;;;13.53;;
17449;SDS011;8842;51.244;7.102;2023-04-01T17:34:20;14.00;;;13.30;;
17449;SDS011;8842;51.244;7.102;2023-04-01T17:39:43;13.63;;;12.93;;
17449;SDS011;8842;51.244;7.102;2023-04-01T17:44:55;14.63;;;13.83;;
17449;SDS011;8842;51.244;7.102;2023-04-01T17:50:07;14.00;;;13.30;;
17449;SDS011;8842;51.244;7.102;2023-04-01T17:55:26;14.20;;;13.50;;
17449;SDS011;8842;51.244;7.102;2023-04-01T18:01:00;14.10;;;13.40;;
17449;SDS011;8842;51.244;7.102;2023-04-01T18:06:30;14.07;;;13.37;;
17449;SDS011;8842;51.244;7.102;2023-04-01T18:11:42;13.63;;;12.93;;
17449;SDS011;8842;51.244;7.102;2023-04-01T18:22:28;13.27;;;12.57;;
17449;SDS011;8842;51.244;7.102;2023-04-01T18:27:37;13.20;;;12.50;;
17449;SDS011;8842;51.244;7.102;2023-04-01T18:32:46;13.70;;;13.00;;
17449;SDS011;8842;51.244;7.102;2023-04-01T18:37:54;13.50;;;12.80;;
17449;SDS011;8842;51.244;7.102;2023-04-01T18:43:04;13.50;;;12.80;;
17449;SDS011;8842;51.244;7.102;2023-04-01T18:48:17;13.40;;;12.70;;
17449;SDS011;8842;51.244;7.102;2023-04-01T18:53:34;13.30;;;12.60;;
17449;SDS011;8842;51.244;7.102;2023-04-01T18:58:45;13.10;;;12.40;;
17449;SDS011;8842;51.244;7.102;2023-04-01T19:09:21;13.00;;;12.30;;
17449;SDS011;8842;51.244;7.102;2023-04-01T19:14:29;13.60;;;12.90;;
17449;SDS011;8842;51.244;7.102;2023-04-01T19:19:40;14.00;;;13.30;;
17449;SDS011;8842;51.244;7.102;2023-04-01T19:24:54;13.60;;;12.90;;
17449;SDS011;8842;51.244;7.102;2023-04-01T19:30:16;13.60;;;12.90;;
17449;SDS011;8842;51.244;7.102;2023-04-01T19:35:27;13.27;;;12.57;;
17449;SDS011;8842;51.244;7.102;2023-04-01T19:40:40;13.90;;;13.20;;
17449;SDS011;8842;51.244;7.102;2023-04-01T19:45:51;13.20;;;12.50;;
17449;SDS011;8842;51.244;7.102;2023-04-01T19:50:59;13.77;;;13.07;;
17449;SDS011;8842;51.244;7.102;2023-04-01T19:56:16;13.60;;;12.90;;
17449;SDS011;8842;51.244;7.102;2023-04-01T20:01:24;13.20;;;12.50;;
17449;SDS011;8842;51.244;7.102;2023-04-01T20:06:32;13.27;;;12.57;;
17449;SDS011;8842;51.244;7.102;2023-04-01T20:11:44;13.50;;;12.80;;
17449;SDS011;8842;51.244;7.102;2023-04-01T20:16:54;12.97;;;12.27;;
17449;SDS011;8842;51.244;7.102;2023-04-01T20:22:05;12.93;;;12.23;;
17449;SDS011;8842;51.244;7.102;2023-04-01T20:27:17;13.20;;;12.50;;
17449;SDS011;8842;51.244;7.102;2023-04-01T20:32:28;13.00;;;12.30;;
17449;SDS011;8842;51.244;7.102;2023-04-01T20:37:38;13.27;;;12.57;;
17449;SDS011;8842;51.244;7.102;2023-04-01T20:48:40;13.27;;;12.57;;
17449;SDS011;8842;51.244;7.102;2023-04-01T20:53:56;12.83;;;12.13;;
17449;SDS011;8842;51.244;7.102;2023-04-01T20:59:24;13.00;;;12.30;;
17449;SDS011;8842;51.244;7.102;2023-04-01T21:04:42;12.70;;;12.00;;
17449;SDS011;8842;51.244;7.102;2023-04-01T21:10:08;13.50;;;12.80;;
17449;SDS011;8842;51.244;7.102;2023-04-01T21:15:21;13.20;;;12.50;;
17449;SDS011;8842;51.244;7.102;2023-04-01T21:26:24;12.60;;;11.90;;
17449;SDS011;8842;51.244;7.102;2023-04-01T21:31:38;13.20;;;12.50;;
17449;SDS011;8842;51.244;7.102;2023-04-01T21:36:58;13.60;;;12.90;;
17449;SDS011;8842;51.244;7.102;2023-04-01T21:42:11;13.93;;;13.23;;
17449;SDS011;8842;51.244;7.102;2023-04-01T21:47:27;14.40;;;13.63;;
17449;SDS011;8842;51.244;7.102;2023-04-01T21:59:00;13.97;;;13.27;;
17449;SDS011;8842;51.244;7.102;2023-04-01T22:04:22;13.33;;;12.63;;
17449;SDS011;8842;51.244;7.102;2023-04-01T22:09:35;13.33;;;12.63;;
17449;SDS011;8842;51.244;7.102;2023-04-01T22:14:43;13.50;;;12.80;;
17449;SDS011;8842;51.244;7.102;2023-04-01T22:19:53;13.30;;;12.60;;
17449;SDS011;8842;51.244;7.102;2023-04-01T22:25:02;13.63;;;12.93;;
17449;SDS011;8842;51.244;7.102;2023-04-01T22:30:11;13.73;;;13.03;;
17449;SDS011;8842;51.244;7.102;2023-04-01T22:35:26;13.23;;;12.53;;
17449;SDS011;8842;51.244;7.102;2023-04-01T22:40:34;13.60;;;12.90;;
17449;SDS011;8842;51.244;7.102;2023-04-01T22:45:57;13.80;;;13.10;;
17449;SDS011;8842;51.244;7.102;2023-04-01T22:51:10;13.83;;;13.13;;
17449;SDS011;8842;51.244;7.102;2023-04-01T22:56:26;14.03;;;13.33;;
17449;SDS011;8842;51.244;7.102;2023-04-01T23:01:33;13.33;;;12.63;;
17449;SDS011;8842;51.244;7.102;2023-04-01T23:06:51;14.03;;;13.33;;
17449;SDS011;8842;51.244;7.102;2023-04-01T23:11:58;13.80;;;13.10;;
17449;SDS011;8842;51.244;7.102;2023-04-01T23:17:09;14.70;;;13.90;;
17449;SDS011;8842;51.244;7.102;2023-04-01T23:22:34;13.93;;;13.23;;
17449;SDS011;8842;51.244;7.102;2023-04-01T23:27:43;14.30;;;13.53;;
17449;SDS011;8842;51.244;7.102;2023-04-01T23:33:06;14.50;;;13.70;;
17449;SDS011;8842;51.244;7.102;2023-04-01T23:38:14;14.70;;;13.90;;
17449;SDS011;8842;51.244;7.102;2023-04-01T23:43:21;14.87;;;14.07;;
17449;SDS011;8842;51.244;7.102;2023-04-01T23:48:29;14.80;;;14.00;;
17449;SDS011;8842;51.244;7.102;2023-04-01T23:53:36;15.00;;;14.20;;
17449;SDS011;8842;51.244;7.102;2023-04-01T23:58:52;14.50;;;13.70;;
